sensor_id;sensor_type;location;lat;lon;timestamp;P1;durP1;ratioP1;P2;durP2;ratioP2
3643;SDS011;1838;50.742;7.158;2023-08-31T00:00:28;8.63;;;4.30;;
3643;SDS011;1838;50.742;7.158;2023-08-31T00:02:56;6.07;;;3.23;;
3643;SDS011;1838;50.742;7.158;2023-08-31T00:05:22;14.10;;;4.53;;
3643;SDS011;1838;50.742;7.158;2023-08-31T00:07:49;8.73;;;4.23;;
3643;SDS011;1838;50.742;7.158;2023-08-31T00:10:16;6.73;;;3.77;;
3643;SDS011;1838;50.742;7.158;2023-08-31T00:12:42;3.93;;;3.10;;
3643;SDS011;1838;50.742;7.158;2023-08-31T00:15:07;9.53;;;3.70;;
3643;SDS011;1838;50.742;7.158;2023-08-31T00:17:34;6.27;;;3.70;;
3643;SDS011;1838;50.742;7.158;2023-08-31T00:20:00;8.67;;;3.60;;
3643;SDS011;1838;50.742;7.158;2023-08-31T00:22:25;6.30;;;3.50;;
3643;SDS011;1838;50.742;7.158;2023-08-31T00:24:51;7.23;;;4.13;;
3643;SDS011;1838;50.742;7.158;2023-08-31T00:27:17;9.67;;;3.50;;
3643;SDS011;1838;50.742;7.158;2023-08-31T00:29:43;5.37;;;4.20;;
3643;SDS011;1838;50.742;7.158;2023-08-31T00:32:14;7.27;;;3.30;;
3643;SDS011;1838;50.742;7.158;2023-08-31T00:34:40;4.97;;;4.50;;
3643;SDS011;1838;50.742;7.158;2023-08-31T00:37:05;15.07;;;4.97;;
3643;SDS011;1838;50.742;7.158;2023-08-31T00:39:31;8.87;;;3.43;;
3643;SDS011;1838;50.742;7.158;2023-08-31T00:41:58;8.57;;;3.87;;
3643;SDS011;1838;50.742;7.158;2023-08-31T00:44:24;9.83;;;3.73;;
3643;SDS011;1838;50.742;7.158;2023-08-31T00:46:49;4.73;;;3.53;;
3643;SDS011;1838;50.742;7.158;2023-08-31T00:49:15;9.63;;;3.40;;
3643;SDS011;1838;50.742;7.158;2023-08-31T00:51:42;9.50;;;4.10;;
3643;SDS011;1838;50.742;7.158;2023-08-31T00:54:13;5.17;;;3.30;;
3643;SDS011;1838;50.742;7.158;2023-08-31T00:56:39;8.93;;;3.90;;
3643;SDS011;1838;50.742;7.158;2023-08-31T00:59:05;5.73;;;2.90;;
3643;SDS011;1838;50.742;7.158;2023-08-31T01:01:39;7.80;;;4.43;;
3643;SDS011;1838;50.742;7.158;2023-08-31T01:07:11;5.83;;;4.07;;
3643;SDS011;1838;50.742;7.158;2023-08-31T01:12:40;7.67;;;3.47;;
3643;SDS011;1838;50.742;7.158;2023-08-31T01:15:12;5.93;;;3.40;;
3643;SDS011;1838;50.742;7.158;2023-08-31T01:17:40;5.50;;;3.57;;
3643;SDS011;1838;50.742;7.158;2023-08-31T01:23:28;4.13;;;3.53;;
3643;SDS011;1838;50.742;7.158;2023-08-31T01:26:06;11.73;;;3.80;;
3643;SDS011;1838;50.742;7.158;2023-08-31T01:28:32;8.97;;;4.17;;
3643;SDS011;1838;50.742;7.158;2023-08-31T01:30:58;6.00;;;3.50;;
3643;SDS011;1838;50.742;7.158;2023-08-31T01:33:29;5.13;;;4.30;;
3643;SDS011;1838;50.742;7.158;2023-08-31T01:35:55;4.67;;;3.60;;
3643;SDS011;1838;50.742;7.158;2023-08-31T01:38:25;4.40;;;3.73;;
3643;SDS011;1838;50.742;7.158;2023-08-31T01:43:27;8.00;;;4.17;;
3643;SDS011;1838;50.742;7.158;2023-08-31T01:45:54;7.33;;;4.27;;
3643;SDS011;1838;50.742;7.158;2023-08-31T01:48:20;6.00;;;3.57;;
3643;SDS011;1838;50.742;7.158;2023-08-31T01:50:46;4.33;;;3.60;;
3643;SDS011;1838;50.742;7.158;2023-08-31T01:53:11;4.70;;;4.07;;
3643;SDS011;1838;50.742;7.158;2023-08-31T01:55:37;5.23;;;3.50;;
3643;SDS011;1838;50.742;7.158;2023-08-31T01:58:03;6.53;;;4.20;;
3643;SDS011;1838;50.742;7.158;2023-08-31T02:00:28;3.80;;;3.50;;
3643;SDS011;1838;50.742;7.158;2023-08-31T02:02:54;13.57;;;4.20;;
3643;SDS011;1838;50.742;7.158;2023-08-31T02:05:19;6.63;;;4.50;;
3643;SDS011;1838;50.742;7.158;2023-08-31T02:07:45;4.90;;;3.63;;
3643;SDS011;1838;50.742;7.158;2023-08-31T02:10:10;5.07;;;3.93;;
3643;SDS011;1838;50.742;7.158;2023-08-31T02:12:36;7.83;;;4.00;;
3643;SDS011;1838;50.742;7.158;2023-08-31T02:15:03;7.77;;;4.60;;
3643;SDS011;1838;50.742;7.158;2023-08-31T02:17:30;12.87;;;4.40;;
3643;SDS011;1838;50.742;7.158;2023-08-31T02:19:55;8.20;;;3.90;;
3643;SDS011;1838;50.742;7.158;2023-08-31T02:22:22;7.97;;;3.40;;
3643;SDS011;1838;50.742;7.158;2023-08-31T02:24:48;5.60;;;3.43;;
3643;SDS011;1838;50.742;7.158;2023-08-31T02:27:13;4.30;;;3.90;;
3643;SDS011;1838;50.742;7.158;2023-08-31T02:29:39;10.73;;;4.13;;
3643;SDS011;1838;50.742;7.158;2023-08-31T02:32:05;5.30;;;3.30;;
3643;SDS011;1838;50.742;7.158;2023-08-31T02:34:31;8.07;;;3.47;;
3643;SDS011;1838;50.742;7.158;2023-08-31T02:36:56;4.50;;;3.63;;
3643;SDS011;1838;50.742;7.158;2023-08-31T02:39:22;4.60;;;4.20;;
3643;SDS011;1838;50.742;7.158;2023-08-31T02:41:48;9.50;;;4.10;;
3643;SDS011;1838;50.742;7.158;2023-08-31T02:44:13;14.00;;;4.90;;
3643;SDS011;1838;50.742;7.158;2023-08-31T02:46:39;15.33;;;5.00;;
3643;SDS011;1838;50.742;7.158;2023-08-31T02:49:05;6.47;;;4.53;;
3643;SDS011;1838;50.742;7.158;2023-08-31T02:51:30;4.30;;;3.90;;
3643;SDS011;1838;50.742;7.158;2023-08-31T02:53:56;7.30;;;4.53;;
3643;SDS011;1838;50.742;7.158;2023-08-31T02:56:21;5.47;;;4.30;;
3643;SDS011;1838;50.742;7.158;2023-08-31T02:58:47;8.33;;;4.47;;
3643;SDS011;1838;50.742;7.158;2023-08-31T03:01:12;6.77;;;4.80;;
3643;SDS011;1838;50.742;7.158;2023-08-31T03:03:39;4.97;;;4.43;;
3643;SDS011;1838;50.742;7.158;2023-08-31T03:06:06;6.73;;;4.90;;
3643;SDS011;1838;50.742;7.158;2023-08-31T03:08:33;5.57;;;5.00;;
3643;SDS011;1838;50.742;7.158;2023-08-31T03:10:58;7.73;;;5.00;;
3643;SDS011;1838;50.742;7.158;2023-08-31T03:13:24;7.43;;;4.70;;
3643;SDS011;1838;50.742;7.158;2023-08-31T03:15:50;8.03;;;5.50;;
3643;SDS011;1838;50.742;7.158;2023-08-31T03:18:15;9.87;;;5.17;;
3643;SDS011;1838;50.742;7.158;2023-08-31T03:20:41;6.00;;;5.40;;
3643;SDS011;1838;50.742;7.158;2023-08-31T03:23:06;6.37;;;5.10;;
3643;SDS011;1838;50.742;7.158;2023-08-31T03:25:32;5.70;;;4.47;;
3643;SDS011;1838;50.742;7.158;2023-08-31T03:27:57;10.57;;;5.27;;
3643;SDS011;1838;50.742;7.158;2023-08-31T03:30:23;5.53;;;4.50;;
3643;SDS011;1838;50.742;7.158;2023-08-31T03:32:48;6.40;;;4.97;;
3643;SDS011;1838;50.742;7.158;2023-08-31T03:35:14;7.53;;;5.00;;
3643;SDS011;1838;50.742;7.158;2023-08-31T03:37:39;7.57;;;5.60;;
3643;SDS011;1838;50.742;7.158;2023-08-31T03:40:05;7.30;;;6.03;;
3643;SDS011;1838;50.742;7.158;2023-08-31T03:42:31;7.60;;;5.07;;
3643;SDS011;1838;50.742;7.158;2023-08-31T03:44:58;14.37;;;6.10;;
3643;SDS011;1838;50.742;7.158;2023-08-31T03:47:24;5.67;;;4.77;;
3643;SDS011;1838;50.742;7.158;2023-08-31T03:49:49;8.10;;;6.40;;
3643;SDS011;1838;50.742;7.158;2023-08-31T03:52:15;6.57;;;5.13;;
3643;SDS011;1838;50.742;7.158;2023-08-31T03:54:40;9.23;;;5.50;;
3643;SDS011;1838;50.742;7.158;2023-08-31T03:57:06;8.97;;;6.30;;
3643;SDS011;1838;50.742;7.158;2023-08-31T03:59:31;7.77;;;5.30;;
3643;SDS011;1838;50.742;7.158;2023-08-31T04:01:57;5.80;;;5.20;;
3643;SDS011;1838;50.742;7.158;2023-08-31T04:04:22;5.00;;;4.60;;
3643;SDS011;1838;50.742;7.158;2023-08-31T04:06:48;7.00;;;4.53;;
3643;SDS011;1838;50.742;7.158;2023-08-31T04:09:13;6.63;;;5.17;;
3643;SDS011;1838;50.742;7.158;2023-08-31T04:11:39;5.37;;;4.73;;
3643;SDS011;1838;50.742;7.158;2023-08-31T04:14:05;7.67;;;4.30;;
3643;SDS011;1838;50.742;7.158;2023-08-31T04:16:31;7.43;;;5.30;;
3643;SDS011;1838;50.742;7.158;2023-08-31T04:18:57;8.33;;;4.93;;
3643;SDS011;1838;50.742;7.158;2023-08-31T04:21:22;5.10;;;4.60;;
3643;SDS011;1838;50.742;7.158;2023-08-31T04:23:48;7.47;;;4.87;;
3643;SDS011;1838;50.742;7.158;2023-08-31T04:26:13;9.43;;;4.53;;
3643;SDS011;1838;50.742;7.158;2023-08-31T04:28:40;8.93;;;5.23;;
3643;SDS011;1838;50.742;7.158;2023-08-31T04:31:08;5.37;;;4.87;;
3643;SDS011;1838;50.742;7.158;2023-08-31T04:33:34;4.70;;;4.30;;
3643;SDS011;1838;50.742;7.158;2023-08-31T04:36:00;5.93;;;4.20;;
3643;SDS011;1838;50.742;7.158;2023-08-31T04:38:26;11.40;;;4.70;;
3643;SDS011;1838;50.742;7.158;2023-08-31T04:40:52;6.23;;;4.20;;
3643;SDS011;1838;50.742;7.158;2023-08-31T04:43:17;16.20;;;4.30;;
3643;SDS011;1838;50.742;7.158;2023-08-31T04:45:43;5.20;;;4.50;;
3643;SDS011;1838;50.742;7.158;2023-08-31T04:48:08;8.13;;;4.13;;
3643;SDS011;1838;50.742;7.158;2023-08-31T04:50:34;9.83;;;4.23;;
3643;SDS011;1838;50.742;7.158;2023-08-31T04:52:59;6.53;;;3.90;;
3643;SDS011;1838;50.742;7.158;2023-08-31T04:55:25;9.50;;;4.90;;
3643;SDS011;1838;50.742;7.158;2023-08-31T04:57:50;9.17;;;4.50;;
3643;SDS011;1838;50.742;7.158;2023-08-31T05:00:16;9.33;;;4.10;;
3643;SDS011;1838;50.742;7.158;2023-08-31T05:02:42;6.90;;;4.47;;
3643;SDS011;1838;50.742;7.158;2023-08-31T05:05:08;5.03;;;4.53;;
3643;SDS011;1838;50.742;7.158;2023-08-31T05:07:34;7.20;;;4.63;;
3643;SDS011;1838;50.742;7.158;2023-08-31T05:09:59;7.27;;;4.83;;
3643;SDS011;1838;50.742;7.158;2023-08-31T05:12:25;6.57;;;4.20;;
3643;SDS011;1838;50.742;7.158;2023-08-31T05:14:50;8.23;;;4.40;;
3643;SDS011;1838;50.742;7.158;2023-08-31T05:17:16;9.83;;;4.20;;
3643;SDS011;1838;50.742;7.158;2023-08-31T05:19:41;4.23;;;3.83;;
3643;SDS011;1838;50.742;7.158;2023-08-31T05:22:07;5.23;;;3.90;;
3643;SDS011;1838;50.742;7.158;2023-08-31T05:24:32;7.77;;;3.87;;
3643;SDS011;1838;50.742;7.158;2023-08-31T05:26:58;10.30;;;4.57;;
3643;SDS011;1838;50.742;7.158;2023-08-31T05:29:23;4.00;;;3.63;;
3643;SDS011;1838;50.742;7.158;2023-08-31T05:31:49;7.60;;;4.30;;
3643;SDS011;1838;50.742;7.158;2023-08-31T05:34:16;4.87;;;3.80;;
3643;SDS011;1838;50.742;7.158;2023-08-31T05:36:45;5.07;;;4.07;;
3643;SDS011;1838;50.742;7.158;2023-08-31T05:39:11;5.57;;;3.60;;
3643;SDS011;1838;50.742;7.158;2023-08-31T05:41:36;7.33;;;3.90;;
3643;SDS011;1838;50.742;7.158;2023-08-31T05:44:04;5.00;;;4.13;;
3643;SDS011;1838;50.742;7.158;2023-08-31T05:46:30;6.50;;;4.43;;
3643;SDS011;1838;50.742;7.158;2023-08-31T05:48:56;3.80;;;3.33;;
3643;SDS011;1838;50.742;7.158;2023-08-31T05:51:21;7.40;;;3.60;;
3643;SDS011;1838;50.742;7.158;2023-08-31T05:53:47;8.53;;;4.10;;
3643;SDS011;1838;50.742;7.158;2023-08-31T05:56:12;8.00;;;3.83;;
3643;SDS011;1838;50.742;7.158;2023-08-31T05:58:38;7.57;;;3.40;;
3643;SDS011;1838;50.742;7.158;2023-08-31T06:01:03;3.63;;;3.30;;
3643;SDS011;1838;50.742;7.158;2023-08-31T06:03:30;4.40;;;2.77;;
3643;SDS011;1838;50.742;7.158;2023-08-31T06:05:56;8.40;;;3.60;;
3643;SDS011;1838;50.742;7.158;2023-08-31T06:08:22;10.60;;;4.07;;
3643;SDS011;1838;50.742;7.158;2023-08-31T06:10:48;7.40;;;3.27;;
3643;SDS011;1838;50.742;7.158;2023-08-31T06:13:14;6.10;;;3.30;;
3643;SDS011;1838;50.742;7.158;2023-08-31T06:15:40;4.73;;;3.30;;
3643;SDS011;1838;50.742;7.158;2023-08-31T06:18:06;4.90;;;3.13;;
3643;SDS011;1838;50.742;7.158;2023-08-31T06:20:31;4.27;;;2.63;;
3643;SDS011;1838;50.742;7.158;2023-08-31T06:22:58;4.23;;;2.10;;
3643;SDS011;1838;50.742;7.158;2023-08-31T06:25:24;5.07;;;2.30;;
3643;SDS011;1838;50.742;7.158;2023-08-31T06:27:50;4.93;;;2.60;;
3643;SDS011;1838;50.742;7.158;2023-08-31T06:30:16;3.20;;;2.27;;
3643;SDS011;1838;50.742;7.158;2023-08-31T06:32:43;3.27;;;2.63;;
3643;SDS011;1838;50.742;7.158;2023-08-31T06:35:09;4.13;;;2.30;;
3643;SDS011;1838;50.742;7.158;2023-08-31T06:37:36;5.00;;;2.30;;
3643;SDS011;1838;50.742;7.158;2023-08-31T06:40:01;2.83;;;2.30;;
3643;SDS011;1838;50.742;7.158;2023-08-31T06:42:27;14.37;;;3.30;;
3643;SDS011;1838;50.742;7.158;2023-08-31T06:44:52;8.50;;;2.70;;
3643;SDS011;1838;50.742;7.158;2023-08-31T06:47:18;4.90;;;3.00;;
3643;SDS011;1838;50.742;7.158;2023-08-31T06:49:43;3.10;;;2.10;;
3643;SDS011;1838;50.742;7.158;2023-08-31T06:52:09;5.67;;;2.90;;
3643;SDS011;1838;50.742;7.158;2023-08-31T06:54:34;4.00;;;2.20;;
3643;SDS011;1838;50.742;7.158;2023-08-31T06:57:00;4.83;;;3.00;;
3643;SDS011;1838;50.742;7.158;2023-08-31T06:59:25;5.27;;;2.70;;
3643;SDS011;1838;50.742;7.158;2023-08-31T07:01:51;3.93;;;2.30;;
3643;SDS011;1838;50.742;7.158;2023-08-31T07:04:16;4.43;;;2.37;;
3643;SDS011;1838;50.742;7.158;2023-08-31T07:06:42;2.67;;;2.10;;
3643;SDS011;1838;50.742;7.158;2023-08-31T07:09:08;7.07;;;2.43;;
3643;SDS011;1838;50.742;7.158;2023-08-31T07:11:33;7.20;;;3.03;;
3643;SDS011;1838;50.742;7.158;2023-08-31T07:13:59;4.43;;;2.60;;
3643;SDS011;1838;50.742;7.158;2023-08-31T07:16:25;2.90;;;2.70;;
3643;SDS011;1838;50.742;7.158;2023-08-31T07:18:51;4.20;;;2.83;;
3643;SDS011;1838;50.742;7.158;2023-08-31T07:21:16;3.40;;;2.53;;
3643;SDS011;1838;50.742;7.158;2023-08-31T07:23:42;6.53;;;2.47;;
3643;SDS011;1838;50.742;7.158;2023-08-31T07:26:08;8.03;;;2.47;;
3643;SDS011;1838;50.742;7.158;2023-08-31T07:28:34;3.77;;;2.60;;
3643;SDS011;1838;50.742;7.158;2023-08-31T07:31:00;3.97;;;2.10;;
3643;SDS011;1838;50.742;7.158;2023-08-31T07:33:29;4.20;;;2.10;;
3643;SDS011;1838;50.742;7.158;2023-08-31T07:36:02;6.60;;;2.80;;
3643;SDS011;1838;50.742;7.158;2023-08-31T07:38:29;6.40;;;2.43;;
3643;SDS011;1838;50.742;7.158;2023-08-31T07:40:56;6.10;;;2.03;;
3643;SDS011;1838;50.742;7.158;2023-08-31T07:43:21;5.30;;;2.23;;
3643;SDS011;1838;50.742;7.158;2023-08-31T07:45:47;5.13;;;2.30;;
3643;SDS011;1838;50.742;7.158;2023-08-31T07:48:13;5.57;;;2.03;;
3643;SDS011;1838;50.742;7.158;2023-08-31T07:50:42;2.13;;;1.67;;
3643;SDS011;1838;50.742;7.158;2023-08-31T07:53:08;4.70;;;1.80;;
3643;SDS011;1838;50.742;7.158;2023-08-31T07:55:33;4.33;;;2.20;;
3643;SDS011;1838;50.742;7.158;2023-08-31T07:58:00;9.00;;;2.13;;
3643;SDS011;1838;50.742;7.158;2023-08-31T08:00:26;8.13;;;1.67;;
3643;SDS011;1838;50.742;7.158;2023-08-31T08:02:52;3.87;;;2.30;;
3643;SDS011;1838;50.742;7.158;2023-08-31T08:05:17;3.73;;;1.90;;
3643;SDS011;1838;50.742;7.158;2023-08-31T08:07:43;3.27;;;1.70;;
3643;SDS011;1838;50.742;7.158;2023-08-31T08:10:09;7.63;;;1.70;;
3643;SDS011;1838;50.742;7.158;2023-08-31T08:12:38;4.13;;;1.80;;
3643;SDS011;1838;50.742;7.158;2023-08-31T08:15:05;9.00;;;1.83;;
3643;SDS011;1838;50.742;7.158;2023-08-31T08:17:32;2.93;;;1.73;;
3643;SDS011;1838;50.742;7.158;2023-08-31T08:19:57;3.80;;;1.90;;
3643;SDS011;1838;50.742;7.158;2023-08-31T08:22:24;5.93;;;1.83;;
3643;SDS011;1838;50.742;7.158;2023-08-31T08:24:50;12.40;;;1.97;;
3643;SDS011;1838;50.742;7.158;2023-08-31T08:27:15;2.33;;;1.50;;
3643;SDS011;1838;50.742;7.158;2023-08-31T08:29:42;4.33;;;1.57;;
3643;SDS011;1838;50.742;7.158;2023-08-31T08:32:08;5.43;;;1.40;;
3643;SDS011;1838;50.742;7.158;2023-08-31T08:34:34;5.07;;;1.50;;
3643;SDS011;1838;50.742;7.158;2023-08-31T08:36:59;3.40;;;1.67;;
3643;SDS011;1838;50.742;7.158;2023-08-31T08:39:25;2.97;;;1.70;;
3643;SDS011;1838;50.742;7.158;2023-08-31T08:41:50;3.87;;;1.27;;
3643;SDS011;1838;50.742;7.158;2023-08-31T08:44:19;6.23;;;2.47;;
3643;SDS011;1838;50.742;7.158;2023-08-31T08:46:46;2.60;;;1.50;;
3643;SDS011;1838;50.742;7.158;2023-08-31T08:49:14;6.67;;;1.60;;
3643;SDS011;1838;50.742;7.158;2023-08-31T08:51:40;5.10;;;2.27;;
3643;SDS011;1838;50.742;7.158;2023-08-31T08:54:06;2.90;;;1.77;;
3643;SDS011;1838;50.742;7.158;2023-08-31T08:56:31;12.07;;;2.37;;
3643;SDS011;1838;50.742;7.158;2023-08-31T08:58:57;2.23;;;1.40;;
3643;SDS011;1838;50.742;7.158;2023-08-31T09:01:23;5.30;;;1.50;;
3643;SDS011;1838;50.742;7.158;2023-08-31T09:03:50;2.63;;;1.47;;
3643;SDS011;1838;50.742;7.158;2023-08-31T09:06:16;5.77;;;1.50;;
3643;SDS011;1838;50.742;7.158;2023-08-31T09:08:42;4.70;;;1.63;;
3643;SDS011;1838;50.742;7.158;2023-08-31T09:11:07;2.53;;;1.40;;
3643;SDS011;1838;50.742;7.158;2023-08-31T09:13:33;3.63;;;2.07;;
3643;SDS011;1838;50.742;7.158;2023-08-31T09:15:59;2.30;;;1.47;;
3643;SDS011;1838;50.742;7.158;2023-08-31T09:18:25;7.77;;;2.27;;
3643;SDS011;1838;50.742;7.158;2023-08-31T09:20:51;2.03;;;1.20;;
3643;SDS011;1838;50.742;7.158;2023-08-31T09:23:17;4.37;;;1.90;;
3643;SDS011;1838;50.742;7.158;2023-08-31T09:25:43;6.00;;;1.53;;
3643;SDS011;1838;50.742;7.158;2023-08-31T09:28:21;3.73;;;1.93;;
3643;SDS011;1838;50.742;7.158;2023-08-31T09:30:51;3.77;;;1.53;;
3643;SDS011;1838;50.742;7.158;2023-08-31T09:33:18;2.87;;;1.87;;
3643;SDS011;1838;50.742;7.158;2023-08-31T09:35:51;3.10;;;1.30;;
3643;SDS011;1838;50.742;7.158;2023-08-31T09:38:22;18.57;;;1.63;;
3643;SDS011;1838;50.742;7.158;2023-08-31T09:40:47;2.50;;;1.30;;
3643;SDS011;1838;50.742;7.158;2023-08-31T09:43:22;5.10;;;1.50;;
3643;SDS011;1838;50.742;7.158;2023-08-31T09:45:48;5.73;;;1.70;;
3643;SDS011;1838;50.742;7.158;2023-08-31T09:48:16;9.20;;;2.40;;
3643;SDS011;1838;50.742;7.158;2023-08-31T09:50:43;2.60;;;1.30;;
3643;SDS011;1838;50.742;7.158;2023-08-31T09:53:10;2.10;;;1.40;;
3643;SDS011;1838;50.742;7.158;2023-08-31T09:55:38;3.17;;;1.50;;
3643;SDS011;1838;50.742;7.158;2023-08-31T09:58:05;7.60;;;1.90;;
3643;SDS011;1838;50.742;7.158;2023-08-31T10:00:32;3.67;;;1.50;;
3643;SDS011;1838;50.742;7.158;2023-08-31T10:03:02;5.60;;;1.77;;
3643;SDS011;1838;50.742;7.158;2023-08-31T10:05:30;3.07;;;1.80;;
3643;SDS011;1838;50.742;7.158;2023-08-31T10:07:56;2.30;;;1.23;;
3643;SDS011;1838;50.742;7.158;2023-08-31T10:10:23;2.77;;;1.87;;
3643;SDS011;1838;50.742;7.158;2023-08-31T10:12:49;3.90;;;1.70;;
3643;SDS011;1838;50.742;7.158;2023-08-31T10:15:16;3.60;;;1.83;;
3643;SDS011;1838;50.742;7.158;2023-08-31T10:17:43;3.70;;;2.07;;
3643;SDS011;1838;50.742;7.158;2023-08-31T10:20:09;2.73;;;1.70;;
3643;SDS011;1838;50.742;7.158;2023-08-31T10:22:36;3.80;;;1.47;;
3643;SDS011;1838;50.742;7.158;2023-08-31T10:25:03;3.40;;;1.43;;
3643;SDS011;1838;50.742;7.158;2023-08-31T10:27:37;2.50;;;1.37;;
3643;SDS011;1838;50.742;7.158;2023-08-31T10:33:01;7.03;;;1.60;;
3643;SDS011;1838;50.742;7.158;2023-08-31T10:35:40;2.47;;;1.50;;
3643;SDS011;1838;50.742;7.158;2023-08-31T10:38:15;3.30;;;1.70;;
3643;SDS011;1838;50.742;7.158;2023-08-31T10:40:41;2.97;;;1.60;;
3643;SDS011;1838;50.742;7.158;2023-08-31T10:43:16;3.23;;;1.50;;
3643;SDS011;1838;50.742;7.158;2023-08-31T10:45:45;4.23;;;1.50;;
3643;SDS011;1838;50.742;7.158;2023-08-31T10:48:11;4.07;;;1.70;;
3643;SDS011;1838;50.742;7.158;2023-08-31T10:50:42;2.77;;;1.50;;
3643;SDS011;1838;50.742;7.158;2023-08-31T10:53:12;6.63;;;2.63;;
3643;SDS011;1838;50.742;7.158;2023-08-31T10:55:53;3.40;;;1.77;;
3643;SDS011;1838;50.742;7.158;2023-08-31T10:58:18;3.40;;;2.10;;
3643;SDS011;1838;50.742;7.158;2023-08-31T11:00:50;4.37;;;1.93;;
3643;SDS011;1838;50.742;7.158;2023-08-31T11:03:17;4.97;;;1.97;;
3643;SDS011;1838;50.742;7.158;2023-08-31T11:05:52;2.87;;;1.90;;
3643;SDS011;1838;50.742;7.158;2023-08-31T11:08:21;7.60;;;3.10;;
3643;SDS011;1838;50.742;7.158;2023-08-31T11:10:48;5.47;;;2.50;;
3643;SDS011;1838;50.742;7.158;2023-08-31T11:13:18;5.60;;;1.90;;
3643;SDS011;1838;50.742;7.158;2023-08-31T11:15:47;5.07;;;1.90;;
3643;SDS011;1838;50.742;7.158;2023-08-31T11:18:13;5.10;;;2.90;;
3643;SDS011;1838;50.742;7.158;2023-08-31T11:20:43;5.10;;;1.80;;
3643;SDS011;1838;50.742;7.158;2023-08-31T11:23:09;6.47;;;2.43;;
3643;SDS011;1838;50.742;7.158;2023-08-31T11:25:35;5.27;;;1.77;;
3643;SDS011;1838;50.742;7.158;2023-08-31T11:28:01;8.53;;;2.80;;
3643;SDS011;1838;50.742;7.158;2023-08-31T11:30:31;4.27;;;2.43;;
3643;SDS011;1838;50.742;7.158;2023-08-31T11:33:07;5.23;;;2.53;;
3643;SDS011;1838;50.742;7.158;2023-08-31T11:35:37;4.20;;;1.87;;
3643;SDS011;1838;50.742;7.158;2023-08-31T11:38:05;4.43;;;2.50;;
3643;SDS011;1838;50.742;7.158;2023-08-31T11:40:31;4.93;;;1.87;;
3643;SDS011;1838;50.742;7.158;2023-08-31T11:42:58;4.27;;;1.93;;
3643;SDS011;1838;50.742;7.158;2023-08-31T11:45:25;2.97;;;1.87;;
3643;SDS011;1838;50.742;7.158;2023-08-31T11:47:51;2.50;;;2.07;;
3643;SDS011;1838;50.742;7.158;2023-08-31T11:50:18;3.30;;;1.80;;
3643;SDS011;1838;50.742;7.158;2023-08-31T11:52:45;3.17;;;2.03;;
3643;SDS011;1838;50.742;7.158;2023-08-31T11:55:11;4.67;;;2.63;;
3643;SDS011;1838;50.742;7.158;2023-08-31T11:57:37;5.80;;;2.43;;
3643;SDS011;1838;50.742;7.158;2023-08-31T12:00:03;4.10;;;1.80;;
3643;SDS011;1838;50.742;7.158;2023-08-31T12:02:34;3.83;;;1.63;;
3643;SDS011;1838;50.742;7.158;2023-08-31T12:05:00;4.87;;;2.13;;
3643;SDS011;1838;50.742;7.158;2023-08-31T12:07:26;5.43;;;2.27;;
3643;SDS011;1838;50.742;7.158;2023-08-31T12:09:51;12.13;;;2.33;;
3643;SDS011;1838;50.742;7.158;2023-08-31T12:12:20;2.73;;;2.20;;
3643;SDS011;1838;50.742;7.158;2023-08-31T12:14:46;4.53;;;2.00;;
3643;SDS011;1838;50.742;7.158;2023-08-31T12:17:12;9.80;;;2.00;;
3643;SDS011;1838;50.742;7.158;2023-08-31T12:19:38;6.37;;;2.33;;
3643;SDS011;1838;50.742;7.158;2023-08-31T12:22:04;10.43;;;2.20;;
3643;SDS011;1838;50.742;7.158;2023-08-31T12:24:36;5.50;;;2.97;;
3643;SDS011;1838;50.742;7.158;2023-08-31T12:27:03;3.90;;;2.00;;
3643;SDS011;1838;50.742;7.158;2023-08-31T12:29:30;4.30;;;2.30;;
3643;SDS011;1838;50.742;7.158;2023-08-31T12:31:56;2.87;;;2.10;;
3643;SDS011;1838;50.742;7.158;2023-08-31T12:34:21;3.43;;;2.30;;
3643;SDS011;1838;50.742;7.158;2023-08-31T12:36:47;4.90;;;2.40;;
3643;SDS011;1838;50.742;7.158;2023-08-31T12:39:12;2.93;;;2.23;;
3643;SDS011;1838;50.742;7.158;2023-08-31T12:41:38;4.00;;;1.67;;
3643;SDS011;1838;50.742;7.158;2023-08-31T12:44:07;3.77;;;2.80;;
3643;SDS011;1838;50.742;7.158;2023-08-31T12:46:33;4.33;;;2.27;;
3643;SDS011;1838;50.742;7.158;2023-08-31T12:48:59;6.10;;;2.40;;
3643;SDS011;1838;50.742;7.158;2023-08-31T12:51:26;7.53;;;2.10;;
3643;SDS011;1838;50.742;7.158;2023-08-31T12:53:52;5.50;;;2.00;;
3643;SDS011;1838;50.742;7.158;2023-08-31T12:56:18;6.03;;;2.57;;
3643;SDS011;1838;50.742;7.158;2023-08-31T12:58:50;5.03;;;2.20;;
3643;SDS011;1838;50.742;7.158;2023-08-31T13:01:17;5.50;;;1.93;;
3643;SDS011;1838;50.742;7.158;2023-08-31T13:03:43;4.80;;;2.13;;
3643;SDS011;1838;50.742;7.158;2023-08-31T13:06:09;7.40;;;2.50;;
3643;SDS011;1838;50.742;7.158;2023-08-31T13:08:34;2.80;;;2.23;;
3643;SDS011;1838;50.742;7.158;2023-08-31T13:11:00;7.07;;;2.63;;
3643;SDS011;1838;50.742;7.158;2023-08-31T13:13:25;2.30;;;1.67;;
3643;SDS011;1838;50.742;7.158;2023-08-31T13:15:51;3.53;;;2.20;;
3643;SDS011;1838;50.742;7.158;2023-08-31T13:18:17;3.80;;;1.90;;
3643;SDS011;1838;50.742;7.158;2023-08-31T13:20:49;3.70;;;2.27;;
3643;SDS011;1838;50.742;7.158;2023-08-31T13:23:18;5.03;;;2.03;;
3643;SDS011;1838;50.742;7.158;2023-08-31T13:25:44;3.50;;;2.03;;
3643;SDS011;1838;50.742;7.158;2023-08-31T13:28:10;4.90;;;2.07;;
3643;SDS011;1838;50.742;7.158;2023-08-31T13:30:35;3.10;;;1.83;;
3643;SDS011;1838;50.742;7.158;2023-08-31T13:33:01;5.73;;;2.50;;
3643;SDS011;1838;50.742;7.158;2023-08-31T13:35:27;3.77;;;2.90;;
3643;SDS011;1838;50.742;7.158;2023-08-31T13:37:52;5.20;;;2.70;;
3643;SDS011;1838;50.742;7.158;2023-08-31T13:40:18;5.33;;;2.80;;
3643;SDS011;1838;50.742;7.158;2023-08-31T13:42:57;4.43;;;2.22;;
3643;SDS011;1838;50.742;7.158;2023-08-31T13:45:28;8.40;;;2.30;;
3643;SDS011;1838;50.742;7.158;2023-08-31T13:47:53;4.10;;;2.47;;
3643;SDS011;1838;50.742;7.158;2023-08-31T13:50:19;7.90;;;3.23;;
3643;SDS011;1838;50.742;7.158;2023-08-31T13:52:45;3.50;;;2.33;;
3643;SDS011;1838;50.742;7.158;2023-08-31T13:55:10;3.93;;;2.50;;
3643;SDS011;1838;50.742;7.158;2023-08-31T13:57:36;5.13;;;2.53;;
3643;SDS011;1838;50.742;7.158;2023-08-31T14:00:03;3.50;;;2.90;;
3643;SDS011;1838;50.742;7.158;2023-08-31T14:02:29;4.53;;;2.17;;
3643;SDS011;1838;50.742;7.158;2023-08-31T14:04:55;5.30;;;2.30;;
3643;SDS011;1838;50.742;7.158;2023-08-31T14:07:21;6.70;;;2.80;;
3643;SDS011;1838;50.742;7.158;2023-08-31T14:09:47;5.03;;;2.67;;
3643;SDS011;1838;50.742;7.158;2023-08-31T14:12:12;6.83;;;2.60;;
3643;SDS011;1838;50.742;7.158;2023-08-31T14:14:38;6.53;;;2.60;;
3643;SDS011;1838;50.742;7.158;2023-08-31T14:17:05;6.60;;;2.50;;
3643;SDS011;1838;50.742;7.158;2023-08-31T14:19:32;5.03;;;2.80;;
3643;SDS011;1838;50.742;7.158;2023-08-31T14:22:00;3.47;;;2.43;;
3643;SDS011;1838;50.742;7.158;2023-08-31T14:24:28;6.60;;;2.87;;
3643;SDS011;1838;50.742;7.158;2023-08-31T14:26:54;12.10;;;4.17;;
3643;SDS011;1838;50.742;7.158;2023-08-31T14:29:20;9.40;;;3.63;;
3643;SDS011;1838;50.742;7.158;2023-08-31T14:31:45;8.27;;;3.90;;
3643;SDS011;1838;50.742;7.158;2023-08-31T14:34:11;9.20;;;3.40;;
3643;SDS011;1838;50.742;7.158;2023-08-31T14:36:36;7.43;;;3.37;;
3643;SDS011;1838;50.742;7.158;2023-08-31T14:39:02;9.30;;;3.20;;
3643;SDS011;1838;50.742;7.158;2023-08-31T14:41:29;7.03;;;3.40;;
3643;SDS011;1838;50.742;7.158;2023-08-31T14:43:55;5.90;;;3.20;;
3643;SDS011;1838;50.742;7.158;2023-08-31T14:46:20;7.07;;;3.57;;
3643;SDS011;1838;50.742;7.158;2023-08-31T14:48:47;9.30;;;3.10;;
3643;SDS011;1838;50.742;7.158;2023-08-31T14:51:12;4.43;;;3.30;;
3643;SDS011;1838;50.742;7.158;2023-08-31T14:53:38;7.50;;;4.47;;
3643;SDS011;1838;50.742;7.158;2023-08-31T14:56:05;11.17;;;7.00;;
3643;SDS011;1838;50.742;7.158;2023-08-31T14:58:30;12.40;;;5.10;;
3643;SDS011;1838;50.742;7.158;2023-08-31T15:00:56;7.73;;;5.07;;
3643;SDS011;1838;50.742;7.158;2023-08-31T15:03:22;4.60;;;4.20;;
3643;SDS011;1838;50.742;7.158;2023-08-31T15:05:48;5.40;;;3.47;;
3643;SDS011;1838;50.742;7.158;2023-08-31T15:08:14;8.30;;;3.30;;
3643;SDS011;1838;50.742;7.158;2023-08-31T15:10:40;9.00;;;4.20;;
3643;SDS011;1838;50.742;7.158;2023-08-31T15:13:06;6.57;;;3.73;;
3643;SDS011;1838;50.742;7.158;2023-08-31T15:15:31;6.43;;;3.60;;
3643;SDS011;1838;50.742;7.158;2023-08-31T15:17:58;8.20;;;3.33;;
3643;SDS011;1838;50.742;7.158;2023-08-31T15:20:23;8.10;;;3.00;;
3643;SDS011;1838;50.742;7.158;2023-08-31T15:22:49;3.47;;;2.90;;
3643;SDS011;1838;50.742;7.158;2023-08-31T15:25:15;8.40;;;3.07;;